Nagaleader — VRDD5 — position and weather

sailwx.info

Track history (hours):
 
Tides and Currents Weather Stations Pressure Air Temp Water Temp Dewpoint Dewpoint Depression Visibility Wind Speed Wind Dir Waves Ship Positions

Nagaleader

Last reported at 2015-Jan-30 16:33 UTC. Time now 2015-Jan-31 07:11 UTC.
Position N 22°51' E 119°52'.

Length 113 m; draft 7.1 m.

Type: Cargo ship. MMSI: 477926700.

Date/timePositionNaut miles runAvg speedWind from/ knotsBaromVisibWave heightAir tempDewpointWater temp
2015-Jan-30 16:33N 22°51' E 119°52'10 9.9
2015-Jan-30 15:33N 22°45' E 120°00'1111.3
2015-Jan-30 14:33N 22°39' E 120°11'8 8.4
2015-Jan-30 13:33N 22°34' E 120°18'1 0.8
2015-Jan-30 12:28N 22°34' E 120°19'0 0.0
2015-Jan-30 11:22N 22°34' E 120°19'0 0.0
2015-Jan-30 10:28N 22°34' E 120°19'0 0.0
2015-Jan-30 09:28N 22°34' E 120°19'0 0.0
2015-Jan-30 08:28N 22°34' E 120°19'0 0.0
2015-Jan-30 07:28N 22°34' E 120°19'0 0.0
2015-Jan-30 06:28N 22°34' E 120°19'0 0.0
2015-Jan-30 05:28N 22°34' E 120°19'0 0.0
2015-Jan-30 04:28N 22°34' E 120°19'0 0.0
2015-Jan-30 03:28N 22°34' E 120°19'0 0.0
2015-Jan-30 02:22N 22°34' E 120°19'0 0.0
2015-Jan-30 01:28N 22°34' E 120°19'1 0.6
2015-Jan-30 00:33N 22°33' E 120°19'7 6.5
2015-Jan-29 23:33N 22°31' E 120°12'8 7.9
2015-Jan-29 22:34N 22°38' E 120°09'9 9.1
2015-Jan-29 21:34N 22°47' E 120°06'166 9.7
2015-Jan-29 04:23N 25°33' E 119°58'1512.5
2015-Jan-29 03:10N 25°47' E 119°54'812.1
2015-Jan-29 02:30N 25°55' E 119°52'1111.3
2015-Jan-29 01:31N 26°05' E 119°47'1212.0
2015-Jan-29 00:33N 26°07' E 119°34'9 8.5
2015-Jan-28 23:33N 26°00' E 119°29'0 0.0
2015-Jan-28 22:29N 26°00' E 119°29'0 0.0
2015-Jan-28 21:29N 26°00' E 119°29'0 0.0
2015-Jan-28 20:11N 26°00' E 119°29'0 0.0
2015-Jan-28 19:29N 26°00' E 119°29'0 0.0
2015-Jan-28 18:23N 26°00' E 119°29'0 0.0
2015-Jan-28 17:23N 26°00' E 119°29'0 0.0
2015-Jan-28 16:23N 26°00' E 119°29'0 0.0
2015-Jan-28 15:29N 26°00' E 119°29'0 0.0
2015-Jan-28 14:29N 26°00' E 119°29'0 0.0
2015-Jan-28 13:17N 26°00' E 119°29'0 0.0
2015-Jan-28 12:29N 26°00' E 119°29'0 0.0
2015-Jan-28 11:29N 26°00' E 119°29'0 0.0
2015-Jan-28 10:29N 26°00' E 119°29'0 0.0
2015-Jan-28 09:28N 26°00' E 119°29'0 0.0
2015-Jan-28 08:22N 26°00' E 119°29'0 0.0
2015-Jan-28 07:22N 26°00' E 119°29'0 0.0
2015-Jan-28 06:22N 26°00' E 119°29'0 0.0
2015-Jan-28 05:29N 26°00' E 119°29'5 5.1
2015-Jan-28 04:33N 26°04' E 119°31'62 5.0
2015-Jan-27 16:15N 25°03' E 119°28'9 9.8
2015-Jan-27 15:18N 24°57' E 119°20'7 9.7
2015-Jan-27 14:33N 24°52' E 119°14'10 9.5
2015-Jan-27 13:33N 24°45' E 119°07'11 8.3
2015-Jan-27 12:12N 24°35' E 119°01'107 9.7
2015-Jan-27 01:08N 22°57' E 119°46'711.2
2015-Jan-27 00:33N 22°52' E 119°51'1212.1
2015-Jan-26 23:33N 22°45' E 120°02'1212.3
2015-Jan-26 22:33N 22°38' E 120°13'7 6.9
2015-Jan-26 21:31N 22°34' E 120°19'0 0.1
2015-Jan-26 20:31N 22°34' E 120°19'0 0.1
2015-Jan-26 19:31N 22°34' E 120°19'0 0.0
2015-Jan-26 18:31N 22°34' E 120°19'0 0.0
2015-Jan-26 17:31N 22°34' E 120°19'0 0.0
2015-Jan-26 16:31N 22°34' E 120°19'0 0.0
2015-Jan-26 15:31N 22°34' E 120°19'1 1.0
2015-Jan-26 14:32N 22°33' E 120°20'0 0.2
2015-Jan-26 13:28N 22°33' E 120°20'0 0.0
2015-Jan-26 12:10N 22°33' E 120°20'0 0.0
2015-Jan-26 11:19N 22°33' E 120°20'0 0.0
2015-Jan-26 10:31N 22°33' E 120°20'0 0.0
2015-Jan-26 09:31N 22°33' E 120°20'0 0.0
2015-Jan-26 08:31N 22°33' E 120°20'0 0.0
2015-Jan-26 07:31N 22°33' E 120°20'0 0.0
2015-Jan-26 06:31N 22°33' E 120°20'0 0.0
2015-Jan-26 05:25N 22°33' E 120°20'0 0.0
2015-Jan-26 04:31N 22°33' E 120°20'0 0.0
2015-Jan-26 03:24N 22°33' E 120°20'5 5.8
2015-Jan-26 02:34N 22°32' E 120°15'1211.8
2015-Jan-26 01:34N 22°42' E 120°08'15711.9
2015-Jan-25 12:24N 25°18' E 119°59'1211.4
2015-Jan-25 11:22N 25°30' E 119°59'1111.4
2015-Jan-25 10:24N 25°41' E 119°56'1512.1
2015-Jan-25 09:10N 25°55' E 119°52'1111.7
2015-Jan-25 08:16N 26°05' E 119°47'1111.5
2015-Jan-25 07:21N 26°08' E 119°36'8 9.9
2015-Jan-25 06:33N 26°02' E 119°30'2 2.1
2015-Jan-25 05:33N 26°00' E 119°29'0 0.0
2015-Jan-25 04:33N 26°00' E 119°29'0 0.0
2015-Jan-25 03:33N 26°00' E 119°29'0 0.0
2015-Jan-25 02:33N 26°00' E 119°29'0 0.0
2015-Jan-25 01:27N 26°00' E 119°29'0 0.1
2015-Jan-25 00:33N 26°00' E 119°29'0 0.0
2015-Jan-24 23:33N 26°00' E 119°29'0 0.0
2015-Jan-24 22:09N 26°00' E 119°29'0 0.0
2015-Jan-24 21:27N 26°00' E 119°29'0 0.0
2015-Jan-24 20:33N 26°00' E 119°29'0 0.0
2015-Jan-24 19:33N 26°00' E 119°29'0 0.0
2015-Jan-24 18:33N 26°00' E 119°29'0 0.0
2015-Jan-24 17:15N 26°00' E 119°29'0 0.0
2015-Jan-24 16:27N 26°00' E 119°29'0 0.0
2015-Jan-24 15:26N 26°00' E 119°29'0 0.4
2015-Jan-24 14:33N 26°00' E 119°29'8 7.9
2015-Jan-24 13:33N 26°07' E 119°33'14311.0
2015-Jan-24 00:32N 23°45' E 119°56'5012.5
2015-Jan-23 20:33N 22°56' E 120°02'1212.5
2015-Jan-23 19:33N 22°45' E 120°08'1313.5
2015-Jan-23 18:33N 22°33' E 120°15'4 3.6
2015-Jan-23 17:33N 22°34' E 120°19'0 0.1
2015-Jan-23 16:30N 22°34' E 120°19'0 0.0
2015-Jan-23 15:30N 22°34' E 120°19'0 0.0
2015-Jan-23 14:30N 22°34' E 120°19'0 0.0
2015-Jan-23 13:30N 22°34' E 120°19'0 0.0
2015-Jan-23 12:30N 22°34' E 120°19'0 0.0
2015-Jan-23 11:30N 22°34' E 120°19'0 0.0
2015-Jan-23 10:30N 22°34' E 120°19'1 0.1
2015-Jan-23 02:30N 22°33' E 120°20'0 0.0
2015-Jan-23 00:12N 22°33' E 120°20'0 0.0
2015-Jan-22 23:30N 22°33' E 120°20'0 0.3
2015-Jan-22 22:33N 22°33' E 120°20'9 8.5
2015-Jan-22 21:33N 22°35' E 120°11'1111.0
2015-Jan-22 20:33N 22°46' E 120°07'20111.8
2015-Jan-22 03:30N 26°06' E 119°43'8 8.3
2015-Jan-22 02:33N 26°08' E 119°34'7 7.1
2015-Jan-22 01:33N 26°02' E 119°30'2 1.5
2015-Jan-22 00:29N 26°00' E 119°29'0 0.0
2015-Jan-21 23:11N 26°00' E 119°29'0 0.0
2015-Jan-21 22:46N 26°00' E 119°29'0 0.0
2015-Jan-21 22:22N 26°00' E 119°29'0 0.0
2015-Jan-21 21:28N 26°00' E 119°29'0 0.0
2015-Jan-21 20:28N 26°00' E 119°29'0 0.0
2015-Jan-21 19:29N 26°00' E 119°29'0 0.0
2015-Jan-21 18:22N 26°00' E 119°29'0 0.0
2015-Jan-21 17:23N 26°00' E 119°29'0 0.0
2015-Jan-21 16:28N 26°00' E 119°29'0 0.0
2015-Jan-21 15:22N 26°00' E 119°29'0 0.0
2015-Jan-21 14:28N 26°00' E 119°29'0 0.0
2015-Jan-21 13:22N 26°00' E 119°29'0 0.0
2015-Jan-21 12:28N 26°00' E 119°29'0 0.0
2015-Jan-21 11:28N 26°00' E 119°29'0 0.0
2015-Jan-21 10:28N 26°00' E 119°29'0 0.0
2015-Jan-21 09:28N 26°00' E 119°29'0 0.1
2015-Jan-21 08:33N 26°00' E 119°29'7 7.1
2015-Jan-21 07:33N 26°06' E 119°33'  
Track history (hours):
 
Tides and Currents Weather Stations Pressure Air Temp Water Temp Dewpoint Dewpoint Depression Visibility Wind Speed Wind Dir Waves Ship Positions

Nagaleader

Last reported at 2015-Jan-30 16:33 UTC. Time now 2015-Jan-31 07:11 UTC.
Position N 22°51' E 119°52'.

Length 113 m; draft 7.1 m.

Type: Cargo ship. MMSI: 477926700.

Date/timePositionNaut miles runAvg speedWind from/ knotsBaromVisibWave heightAir tempDewpointWater temp
2015-Jan-30 16:33N 22°51' E 119°52'10 9.9
2015-Jan-30 15:33N 22°45' E 120°00'1111.3
2015-Jan-30 14:33N 22°39' E 120°11'8 8.4
2015-Jan-30 13:33N 22°34' E 120°18'1 0.8
2015-Jan-30 12:28N 22°34' E 120°19'0 0.0
2015-Jan-30 11:22N 22°34' E 120°19'0 0.0
2015-Jan-30 10:28N 22°34' E 120°19'0 0.0
2015-Jan-30 09:28N 22°34' E 120°19'0 0.0
2015-Jan-30 08:28N 22°34' E 120°19'0 0.0
2015-Jan-30 07:28N 22°34' E 120°19'0 0.0
2015-Jan-30 06:28N 22°34' E 120°19'0 0.0
2015-Jan-30 05:28N 22°34' E 120°19'0 0.0
2015-Jan-30 04:28N 22°34' E 120°19'0 0.0
2015-Jan-30 03:28N 22°34' E 120°19'0 0.0
2015-Jan-30 02:22N 22°34' E 120°19'0 0.0
2015-Jan-30 01:28N 22°34' E 120°19'1 0.6
2015-Jan-30 00:33N 22°33' E 120°19'7 6.5
2015-Jan-29 23:33N 22°31' E 120°12'8 7.9
2015-Jan-29 22:34N 22°38' E 120°09'9 9.1
2015-Jan-29 21:34N 22°47' E 120°06'166 9.7
2015-Jan-29 04:23N 25°33' E 119°58'1512.5
2015-Jan-29 03:10N 25°47' E 119°54'812.1
2015-Jan-29 02:30N 25°55' E 119°52'1111.3
2015-Jan-29 01:31N 26°05' E 119°47'1212.0
2015-Jan-29 00:33N 26°07' E 119°34'9 8.5
2015-Jan-28 23:33N 26°00' E 119°29'0 0.0
2015-Jan-28 22:29N 26°00' E 119°29'0 0.0
2015-Jan-28 21:29N 26°00' E 119°29'0 0.0
2015-Jan-28 20:11N 26°00' E 119°29'0 0.0
2015-Jan-28 19:29N 26°00' E 119°29'0 0.0
2015-Jan-28 18:23N 26°00' E 119°29'0 0.0
2015-Jan-28 17:23N 26°00' E 119°29'0 0.0
2015-Jan-28 16:23N 26°00' E 119°29'0 0.0
2015-Jan-28 15:29N 26°00' E 119°29'0 0.0
2015-Jan-28 14:29N 26°00' E 119°29'0 0.0
2015-Jan-28 13:17N 26°00' E 119°29'0 0.0
2015-Jan-28 12:29N 26°00' E 119°29'0 0.0
2015-Jan-28 11:29N 26°00' E 119°29'0 0.0
2015-Jan-28 10:29N 26°00' E 119°29'0 0.0
2015-Jan-28 09:28N 26°00' E 119°29'0 0.0
2015-Jan-28 08:22N 26°00' E 119°29'0 0.0
2015-Jan-28 07:22N 26°00' E 119°29'0 0.0
2015-Jan-28 06:22N 26°00' E 119°29'0 0.0
2015-Jan-28 05:29N 26°00' E 119°29'5 5.1
2015-Jan-28 04:33N 26°04' E 119°31'62 5.0
2015-Jan-27 16:15N 25°03' E 119°28'9 9.8
2015-Jan-27 15:18N 24°57' E 119°20'7 9.7
2015-Jan-27 14:33N 24°52' E 119°14'10 9.5
2015-Jan-27 13:33N 24°45' E 119°07'11 8.3
2015-Jan-27 12:12N 24°35' E 119°01'107 9.7
2015-Jan-27 01:08N 22°57' E 119°46'711.2
2015-Jan-27 00:33N 22°52' E 119°51'1212.1
2015-Jan-26 23:33N 22°45' E 120°02'1212.3
2015-Jan-26 22:33N 22°38' E 120°13'7 6.9
2015-Jan-26 21:31N 22°34' E 120°19'0 0.1
2015-Jan-26 20:31N 22°34' E 120°19'0 0.1
2015-Jan-26 19:31N 22°34' E 120°19'0 0.0
2015-Jan-26 18:31N 22°34' E 120°19'0 0.0
2015-Jan-26 17:31N 22°34' E 120°19'0 0.0
2015-Jan-26 16:31N 22°34' E 120°19'0 0.0
2015-Jan-26 15:31N 22°34' E 120°19'1 1.0
2015-Jan-26 14:32N 22°33' E 120°20'0 0.2
2015-Jan-26 13:28N 22°33' E 120°20'0 0.0
2015-Jan-26 12:10N 22°33' E 120°20'0 0.0
2015-Jan-26 11:19N 22°33' E 120°20'0 0.0
2015-Jan-26 10:31N 22°33' E 120°20'0 0.0
2015-Jan-26 09:31N 22°33' E 120°20'0 0.0
2015-Jan-26 08:31N 22°33' E 120°20'0 0.0
2015-Jan-26 07:31N 22°33' E 120°20'0 0.0
2015-Jan-26 06:31N 22°33' E 120°20'0 0.0
2015-Jan-26 05:25N 22°33' E 120°20'0 0.0
2015-Jan-26 04:31N 22°33' E 120°20'0 0.0
2015-Jan-26 03:24N 22°33' E 120°20'5 5.8
2015-Jan-26 02:34N 22°32' E 120°15'1211.8
2015-Jan-26 01:34N 22°42' E 120°08'15711.9
2015-Jan-25 12:24N 25°18' E 119°59'1211.4
2015-Jan-25 11:22N 25°30' E 119°59'1111.4
2015-Jan-25 10:24N 25°41' E 119°56'1512.1
2015-Jan-25 09:10N 25°55' E 119°52'1111.7
2015-Jan-25 08:16N 26°05' E 119°47'1111.5
2015-Jan-25 07:21N 26°08' E 119°36'8 9.9
2015-Jan-25 06:33N 26°02' E 119°30'2 2.1
2015-Jan-25 05:33N 26°00' E 119°29'0 0.0
2015-Jan-25 04:33N 26°00' E 119°29'0 0.0
2015-Jan-25 03:33N 26°00' E 119°29'0 0.0
2015-Jan-25 02:33N 26°00' E 119°29'0 0.0
2015-Jan-25 01:27N 26°00' E 119°29'0 0.1
2015-Jan-25 00:33N 26°00' E 119°29'0 0.0
2015-Jan-24 23:33N 26°00' E 119°29'0 0.0
2015-Jan-24 22:09N 26°00' E 119°29'0 0.0
2015-Jan-24 21:27N 26°00' E 119°29'0 0.0
2015-Jan-24 20:33N 26°00' E 119°29'0 0.0
2015-Jan-24 19:33N 26°00' E 119°29'0 0.0
2015-Jan-24 18:33N 26°00' E 119°29'0 0.0
2015-Jan-24 17:15N 26°00' E 119°29'0 0.0
2015-Jan-24 16:27N 26°00' E 119°29'0 0.0
2015-Jan-24 15:26N 26°00' E 119°29'0 0.4
2015-Jan-24 14:33N 26°00' E 119°29'8 7.9
2015-Jan-24 13:33N 26°07' E 119°33'14311.0
2015-Jan-24 00:32N 23°45' E 119°56'5012.5
2015-Jan-23 20:33N 22°56' E 120°02'1212.5
2015-Jan-23 19:33N 22°45' E 120°08'1313.5
2015-Jan-23 18:33N 22°33' E 120°15'4 3.6
2015-Jan-23 17:33N 22°34' E 120°19'0 0.1
2015-Jan-23 16:30N 22°34' E 120°19'0 0.0
2015-Jan-23 15:30N 22°34' E 120°19'0 0.0
2015-Jan-23 14:30N 22°34' E 120°19'0 0.0
2015-Jan-23 13:30N 22°34' E 120°19'0 0.0
2015-Jan-23 12:30N 22°34' E 120°19'0 0.0
2015-Jan-23 11:30N 22°34' E 120°19'0 0.0
2015-Jan-23 10:30N 22°34' E 120°19'1 0.1
2015-Jan-23 02:30N 22°33' E 120°20'0 0.0
2015-Jan-23 00:12N 22°33' E 120°20'0 0.0
2015-Jan-22 23:30N 22°33' E 120°20'0 0.3
2015-Jan-22 22:33N 22°33' E 120°20'9 8.5
2015-Jan-22 21:33N 22°35' E 120°11'1111.0
2015-Jan-22 20:33N 22°46' E 120°07'20111.8
2015-Jan-22 03:30N 26°06' E 119°43'8 8.3
2015-Jan-22 02:33N 26°08' E 119°34'7 7.1
2015-Jan-22 01:33N 26°02' E 119°30'2 1.5
2015-Jan-22 00:29N 26°00' E 119°29'0 0.0
2015-Jan-21 23:11N 26°00' E 119°29'0 0.0
2015-Jan-21 22:46N 26°00' E 119°29'0 0.0
2015-Jan-21 22:22N 26°00' E 119°29'0 0.0
2015-Jan-21 21:28N 26°00' E 119°29'0 0.0
2015-Jan-21 20:28N 26°00' E 119°29'0 0.0
2015-Jan-21 19:29N 26°00' E 119°29'0 0.0
2015-Jan-21 18:22N 26°00' E 119°29'0 0.0
2015-Jan-21 17:23N 26°00' E 119°29'0 0.0
2015-Jan-21 16:28N 26°00' E 119°29'0 0.0
2015-Jan-21 15:22N 26°00' E 119°29'0 0.0
2015-Jan-21 14:28N 26°00' E 119°29'0 0.0
2015-Jan-21 13:22N 26°00' E 119°29'0 0.0
2015-Jan-21 12:28N 26°00' E 119°29'0 0.0
2015-Jan-21 11:28N 26°00' E 119°29'0 0.0
2015-Jan-21 10:28N 26°00' E 119°29'0 0.0
2015-Jan-21 09:28N 26°00' E 119°29'0 0.1
2015-Jan-21 08:33N 26°00' E 119°29'7 7.1
2015-Jan-21 07:33N 26°06' E 119°33'  

Dump ship's entire track history